Time;durP1;ratioP1;P1;durP2;ratioP2;P2;SDS_P1;SDS_P2;PMS_P1;PMS_P2;Temp;Humidity;BMP_temperature;BMP_pressure;BME280_temperature;BME280_humidity;BME280_pressure;Samples;Min_cycle;Max_cycle;Signal;HPM_P1;HPM_P2
2023/01/11 00:02:00;;;;;;;;;;;9.10;99.90;;;;;;5054720;28;20383;-72
2023/01/11 00:04:28;;;;;;;;;;;9.10;99.90;;;;;;5054800;28;20253;-72
2023/01/11 00:06:54;;;;;;;;;;;9.20;99.90;;;;;;5072659;28;19956;-73
2023/01/11 00:09:20;;;;;;;;;;;9.10;99.90;;;;;;5054499;28;20034;-72
2023/01/11 00:11:45;;;;;;;;;;;9.10;99.90;;;;;;5072648;28;19962;-72
2023/01/11 00:14:11;;;;;;;;;;;9.20;99.90;;;;;;5075568;28;19995;-72
2023/01/11 00:16:36;;;;;;;;;;;9.20;99.90;;;;;;5058945;28;20223;-72
2023/01/11 00:19:02;;;;;;;;;;;9.20;99.90;;;;;;5077130;28;19905;-72
2023/01/11 00:21:27;;;;;;;;;;;9.20;99.90;;;;;;5058178;28;19905;-73
2023/01/11 00:23:53;;;;;;;;;;;9.20;99.90;;;;;;5057903;28;19905;-72
2023/01/11 00:26:18;;;;;;;;;;;9.20;99.90;;;;;;5057920;28;19911;-72
2023/01/11 00:28:46;;;;;;;;;;;9.30;99.90;;;;;;5075226;28;19998;-72
2023/01/11 00:31:11;;;;;;;;;;;9.20;99.90;;;;;;5058525;28;19954;-73
2023/01/11 00:33:37;;;;;;;;;;;9.30;99.90;;;;;;5075874;28;19916;-73
2023/01/11 00:36:02;;;;;;;;;;;9.30;99.90;;;;;;5057745;28;19935;-72
2023/01/11 00:38:45;;;;;;;;;;;9.30;99.90;;;;;;5057931;28;19927;-72
2023/01/11 00:49:25;;;;;;;;;;;9.20;99.90;;;;;;5075632;28;19915;-73
2023/01/11 00:51:50;;;;;;;;;;;9.30;99.90;;;;;;5057918;28;19908;-72
2023/01/11 00:54:16;;;;;;;;;;;9.20;99.90;;;;;;5075499;28;19904;-72
2023/01/11 00:56:41;;;;;;;;;;;9.30;99.90;;;;;;5075458;28;19908;-73
2023/01/11 00:59:06;;;;;;;;;;;9.20;99.90;;;;;;5075564;28;19908;-72
2023/01/11 01:01:32;;;;;;;;;;;9.20;99.90;;;;;;5057598;28;20353;-72
2023/01/11 01:04:01;;;;;;;;;;;9.30;99.90;;;;;;5057454;28;19904;-72
2023/01/11 01:06:27;;;;;;;;;;;9.50;99.90;;;;;;5075441;28;19966;-73
2023/01/11 01:08:53;;;;;;;;;;;9.40;99.90;;;;;;5075103;28;20276;-72
2023/01/11 01:11:18;;;;;;;;;;;9.50;99.90;;;;;;5075112;28;19908;-72
2023/01/11 01:16:31;;;;;;;;;;;9.40;99.90;;;;;;5075543;28;19954;-72
2023/01/11 01:18:57;;;;;;;;;;;9.40;99.90;;;;;;5057221;28;19955;-73
2023/01/11 01:21:22;;;;;;;;;;;9.40;99.90;;;;;;5057613;28;19912;-72
2023/01/11 01:23:50;;;;;;;;;;;9.40;99.90;;;;;;5074415;28;19940;-72
2023/01/11 01:26:15;;;;;;;;;;;9.40;99.90;;;;;;5056249;28;19912;-72
2023/01/11 01:28:41;;;;;;;;;;;9.40;99.90;;;;;;5074900;28;19904;-72
2023/01/11 01:31:06;;;;;;;;;;;9.40;99.90;;;;;;5056780;28;19908;-72
2023/01/11 01:33:32;;;;;;;;;;;9.40;99.90;;;;;;5044183;28;19952;-72
2023/01/11 01:35:59;;;;;;;;;;;9.60;99.90;;;;;;5036477;28;19912;-72
2023/01/11 01:38:25;;;;;;;;;;;9.60;99.90;;;;;;5036798;28;19905;-71
2023/01/11 01:40:51;;;;;;;;;;;9.60;99.90;;;;;;5036342;28;19959;-72
2023/01/11 01:43:16;;;;;;;;;;;9.60;99.90;;;;;;5036692;28;19912;-72
2023/01/11 01:45:42;;;;;;;;;;;9.60;99.90;;;;;;5036464;28;19913;-73
2023/01/11 01:48:09;;;;;;;;;;;9.70;99.90;;;;;;5036551;28;19995;-73
2023/01/11 01:50:36;;;;;;;;;;;9.70;99.90;;;;;;5036451;28;20361;-73
2023/01/11 01:53:05;;;;;;;;;;;9.80;99.90;;;;;;5054197;28;19928;-73
2023/01/11 01:55:33;;;;;;;;;;;9.70;99.90;;;;;;5036608;28;19905;-72
2023/01/11 01:58:00;;;;;;;;;;;9.70;99.90;;;;;;5036415;28;20350;-73
2023/01/11 02:00:26;;;;;;;;;;;9.70;99.90;;;;;;5036310;28;20281;-73
2023/01/11 02:02:52;;;;;;;;;;;9.60;99.90;;;;;;5054090;28;19911;-73
2023/01/11 02:05:17;;;;;;;;;;;9.60;99.90;;;;;;5054075;28;20003;-72
2023/01/11 02:07:43;;;;;;;;;;;9.70;99.90;;;;;;5036169;28;19991;-73
2023/01/11 02:10:11;;;;;;;;;;;9.70;99.90;;;;;;5054017;28;19908;-74
2023/01/11 02:12:39;;;;;;;;;;;9.70;99.90;;;;;;5036165;28;20000;-73
2023/01/11 02:15:05;;;;;;;;;;;9.80;99.90;;;;;;5053848;28;19912;-73
2023/01/11 02:17:31;;;;;;;;;;;9.70;99.90;;;;;;5059875;28;19908;-72
2023/01/11 02:20:15;;;;;;;;;;;9.70;99.90;;;;;;5073667;28;19958;-72
2023/01/11 02:22:59;;;;;;;;;;;9.70;99.90;;;;;;5055874;28;19911;-72
2023/01/11 02:25:30;;;;;;;;;;;9.60;99.90;;;;;;5055431;28;20004;-72
2023/01/11 02:27:59;;;;;;;;;;;9.60;99.90;;;;;;5073998;28;19912;-72
2023/01/11 02:30:33;;;;;;;;;;;9.60;99.90;;;;;;5073611;28;19908;-72
2023/01/11 02:33:07;;;;;;;;;;;9.60;99.90;;;;;;5074887;28;19904;-73
2023/01/11 02:35:33;;;;;;;;;;;9.50;99.90;;;;;;5073172;28;19999;-72
2023/01/11 02:38:04;;;;;;;;;;;9.50;99.90;;;;;;5056320;28;19916;-72
2023/01/11 02:40:32;;;;;;;;;;;9.50;99.90;;;;;;5074336;28;19904;-73
2023/01/11 02:46:08;;;;;;;;;;;9.50;99.90;;;;;;5075866;28;19911;-73
2023/01/11 02:48:40;;;;;;;;;;;9.50;99.90;;;;;;5057971;28;19991;-72
2023/01/11 02:51:09;;;;;;;;;;;9.40;99.90;;;;;;5074522;28;19951;-73
2023/01/11 02:53:53;;;;;;;;;;;9.40;99.90;;;;;;5057931;28;19905;-72
2023/01/11 02:56:22;;;;;;;;;;;9.40;99.90;;;;;;5076372;28;19955;-73
2023/01/11 02:58:49;;;;;;;;;;;9.30;99.90;;;;;;5066455;28;19904;-73
2023/01/11 03:01:15;;;;;;;;;;;9.20;99.90;;;;;;5061848;28;19904;-72
2023/01/11 03:03:40;;;;;;;;;;;9.20;99.90;;;;;;5073785;28;19948;-73
2023/01/11 03:06:11;;;;;;;;;;;9.10;99.90;;;;;;5055565;28;20380;-74
2023/01/11 03:08:43;;;;;;;;;;;9.10;99.90;;;;;;5055983;28;19905;-73
2023/01/11 03:11:08;;;;;;;;;;;9.10;99.90;;;;;;5054965;28;19909;-72
2023/01/11 03:13:48;;;;;;;;;;;9.10;99.90;;;;;;5051387;28;19905;-72
2023/01/11 03:16:18;;;;;;;;;;;9.20;99.90;;;;;;5035342;28;19905;-73
2023/01/11 03:18:51;;;;;;;;;;;9.30;99.90;;;;;;5035493;28;19988;-73
2023/01/11 03:21:26;;;;;;;;;;;9.30;99.90;;;;;;5035635;28;19905;-73
2023/01/11 03:24:09;;;;;;;;;;;9.30;99.90;;;;;;5035185;28;19904;-73
2023/01/11 03:26:53;;;;;;;;;;;9.30;99.90;;;;;;5035039;28;20273;-72
2023/01/11 03:29:29;;;;;;;;;;;9.40;99.90;;;;;;5034981;28;20273;-72
2023/01/11 03:32:13;;;;;;;;;;;9.50;99.90;;;;;;5053311;28;19912;-72
2023/01/11 03:34:47;;;;;;;;;;;9.60;99.90;;;;;;5053010;28;19913;-72
2023/01/11 03:37:19;;;;;;;;;;;9.60;99.90;;;;;;5048982;28;20094;-72
2023/01/11 03:39:52;;;;;;;;;;;9.60;99.90;;;;;;5054791;28;20002;-72
2023/01/11 03:42:19;;;;;;;;;;;9.50;99.90;;;;;;5072288;28;19927;-73
2023/01/11 03:44:47;;;;;;;;;;;9.60;99.90;;;;;;5054891;28;19904;-73
2023/01/11 03:47:14;;;;;;;;;;;9.50;99.90;;;;;;5072806;28;19911;-72
2023/01/11 03:49:48;;;;;;;;;;;9.60;99.90;;;;;;5076487;28;19916;-72
2023/01/11 03:52:14;;;;;;;;;;;9.50;99.90;;;;;;5076670;28;19911;-72
2023/01/11 03:54:41;;;;;;;;;;;9.70;99.90;;;;;;5058513;28;19904;-72
2023/01/11 03:57:13;;;;;;;;;;;9.80;99.90;;;;;;5076575;28;19904;-72
2023/01/11 03:59:39;;;;;;;;;;;9.90;99.90;;;;;;5076557;28;20379;-72
2023/01/11 04:02:13;;;;;;;;;;;9.90;99.90;;;;;;5076459;28;19904;-72
2023/01/11 04:04:38;;;;;;;;;;;9.90;99.90;;;;;;5076411;28;19909;-72
2023/01/11 04:07:04;;;;;;;;;;;10.00;99.90;;;;;;5058316;28;19974;-72
2023/01/11 04:09:29;;;;;;;;;;;10.00;99.90;;;;;;5075856;28;20007;-71
2023/01/11 04:11:54;;;;;;;;;;;9.90;99.90;;;;;;5048982;28;19905;-72
2023/01/11 04:14:20;;;;;;;;;;;9.90;99.90;;;;;;5056362;28;20381;-72
2023/01/11 04:16:45;;;;;;;;;;;10.00;99.90;;;;;;5056184;28;20285;-72
2023/01/11 04:19:11;;;;;;;;;;;10.00;99.90;;;;;;5056214;28;19959;-72
2023/01/11 04:21:36;;;;;;;;;;;10.10;99.90;;;;;;5038385;28;20350;-73
2023/01/11 04:24:02;;;;;;;;;;;10.00;99.90;;;;;;5056120;28;19927;-73
2023/01/11 04:26:27;;;;;;;;;;;10.10;99.90;;;;;;5055710;28;19936;-72
2023/01/11 04:28:53;;;;;;;;;;;10.10;99.90;;;;;;5055884;28;19956;-72
2023/01/11 04:31:18;;;;;;;;;;;10.10;99.90;;;;;;5038029;28;19912;-72
2023/01/11 04:33:43;;;;;;;;;;;10.20;99.90;;;;;;5037968;28;19905;-72
2023/01/11 04:36:09;;;;;;;;;;;10.30;99.90;;;;;;5037749;28;19918;-72
2023/01/11 04:38:35;;;;;;;;;;;10.30;99.90;;;;;;5038038;28;19905;-72
2023/01/11 04:43:45;;;;;;;;;;;10.30;99.90;;;;;;5056526;28;19971;-72
2023/01/11 04:46:10;;;;;;;;;;;10.30;99.90;;;;;;5056053;28;20361;-72
2023/01/11 04:48:38;;;;;;;;;;;10.40;99.90;;;;;;5055990;28;20344;-73
2023/01/11 04:51:04;;;;;;;;;;;10.30;99.90;;;;;;5037614;28;20019;-72
2023/01/11 04:53:30;;;;;;;;;;;10.30;99.90;;;;;;5055567;28;19905;-72
2023/01/11 04:55:58;;;;;;;;;;;10.30;99.90;;;;;;5055861;28;19912;-72
2023/01/11 04:58:24;;;;;;;;;;;10.40;99.90;;;;;;5056627;28;19912;-72
2023/01/11 05:00:49;;;;;;;;;;;10.40;99.90;;;;;;5056186;28;19905;-72
2023/01/11 05:03:15;;;;;;;;;;;10.30;99.90;;;;;;5037812;28;19905;-73
2023/01/11 05:05:40;;;;;;;;;;;10.40;99.90;;;;;;5055710;28;19908;-73
2023/01/11 05:08:05;;;;;;;;;;;10.40;99.90;;;;;;5042446;28;20268;-71
2023/01/11 05:10:31;;;;;;;;;;;10.30;99.90;;;;;;5075566;28;19908;-73
2023/01/11 05:12:56;;;;;;;;;;;10.40;99.90;;;;;;5058120;28;20011;-73
2023/01/11 05:15:22;;;;;;;;;;;10.40;99.90;;;;;;5057498;28;19904;-72
2023/01/11 05:17:47;;;;;;;;;;;10.40;99.90;;;;;;5057441;28;20336;-72
2023/01/11 05:20:13;;;;;;;;;;;10.50;99.90;;;;;;5057581;28;20280;-72
2023/01/11 05:22:38;;;;;;;;;;;10.40;99.90;;;;;;5080861;28;19966;-72
2023/01/11 05:25:04;;;;;;;;;;;10.50;99.90;;;;;;5077699;28;19908;-72
2023/01/11 05:27:29;;;;;;;;;;;10.50;99.90;;;;;;5077244;28;19911;-72
2023/01/11 05:29:55;;;;;;;;;;;10.50;99.90;;;;;;5057155;28;19915;-72
2023/01/11 05:32:20;;;;;;;;;;;10.40;99.90;;;;;;5056397;28;19908;-72
2023/01/11 05:34:45;;;;;;;;;;;10.40;99.90;;;;;;5075205;28;20273;-72
2023/01/11 05:37:11;;;;;;;;;;;10.50;99.90;;;;;;5057469;28;19924;-71
2023/01/11 05:39:36;;;;;;;;;;;10.40;99.90;;;;;;5074850;28;19904;-71
2023/01/11 05:42:02;;;;;;;;;;;10.50;99.90;;;;;;5074053;28;19958;-70
2023/01/11 05:47:11;;;;;;;;;;;10.50;99.90;;;;;;5074680;28;20280;-70
2023/01/11 05:49:37;;;;;;;;;;;10.50;99.90;;;;;;5074680;28;20312;-71
2023/01/11 05:52:02;;;;;;;;;;;10.50;99.90;;;;;;5056644;28;19914;-69
2023/01/11 05:54:28;;;;;;;;;;;10.50;99.90;;;;;;5074720;28;19999;-71
2023/01/11 05:56:56;;;;;;;;;;;10.50;99.90;;;;;;5065598;28;19931;-70
2023/01/11 05:59:22;;;;;;;;;;;10.40;99.90;;;;;;5057374;28;19905;-70
2023/01/11 06:01:49;;;;;;;;;;;10.50;99.90;;;;;;5074935;28;19904;-71
2023/01/11 06:04:15;;;;;;;;;;;10.40;99.90;;;;;;5074088;28;20237;-70
2023/01/11 06:06:41;;;;;;;;;;;10.30;99.90;;;;;;5075036;28;19909;-70
2023/01/11 06:09:07;;;;;;;;;;;10.50;99.90;;;;;;5057769;28;19904;-71
2023/01/11 06:11:32;;;;;;;;;;;10.50;99.90;;;;;;5056217;28;20336;-70
2023/01/11 06:13:58;;;;;;;;;;;10.50;99.90;;;;;;5055790;28;19905;-71
2023/01/11 06:16:24;;;;;;;;;;;10.60;99.90;;;;;;5056586;28;20353;-70
2023/01/11 06:18:50;;;;;;;;;;;10.60;99.90;;;;;;5056453;28;20361;-70
2023/01/11 06:21:16;;;;;;;;;;;10.60;99.90;;;;;;5074508;28;20372;-70
2023/01/11 06:23:43;;;;;;;;;;;10.70;99.90;;;;;;5056247;28;19908;-68
2023/01/11 06:26:09;;;;;;;;;;;10.70;99.90;;;;;;5073588;28;19905;-69
2023/01/11 06:28:35;;;;;;;;;;;10.70;99.90;;;;;;5055967;28;19946;-68
2023/01/11 06:31:01;;;;;;;;;;;10.80;99.90;;;;;;5073511;28;19919;-69
2023/01/11 06:33:27;;;;;;;;;;;10.80;99.90;;;;;;5073982;28;19991;-69
2023/01/11 06:35:53;;;;;;;;;;;10.80;99.90;;;;;;5073943;28;19975;-69
2023/01/11 06:38:20;;;;;;;;;;;10.80;99.90;;;;;;5074223;28;20320;-70
2023/01/11 06:40:56;;;;;;;;;;;10.80;99.90;;;;;;5055980;28;19939;-69
2023/01/11 06:43:22;;;;;;;;;;;10.80;99.90;;;;;;5055478;28;19912;-69
2023/01/11 06:45:48;;;;;;;;;;;10.80;99.90;;;;;;5074189;28;19905;-69
2023/01/11 06:48:13;;;;;;;;;;;10.70;99.90;;;;;;5075489;28;20372;-69
2023/01/11 06:50:39;;;;;;;;;;;10.80;99.90;;;;;;5075187;28;20006;-70
2023/01/11 06:53:04;;;;;;;;;;;10.80;99.90;;;;;;5074167;28;20268;-69
2023/01/11 06:55:30;;;;;;;;;;;10.70;99.90;;;;;;5055225;28;19908;-69
2023/01/11 06:57:55;;;;;;;;;;;10.80;99.90;;;;;;5073431;28;19992;-69
2023/01/11 07:00:21;;;;;;;;;;;10.80;99.90;;;;;;5074384;28;19908;-68
2023/01/11 07:02:47;;;;;;;;;;;10.80;99.90;;;;;;5047700;28;19904;-69
2023/01/11 07:05:12;;;;;;;;;;;10.80;99.90;;;;;;5073498;28;19911;-70
2023/01/11 07:07:38;;;;;;;;;;;10.90;99.90;;;;;;5073352;28;19935;-70
2023/01/11 07:10:06;;;;;;;;;;;10.90;99.90;;;;;;5073217;28;19930;-69
2023/01/11 07:12:32;;;;;;;;;;;11.00;99.90;;;;;;5073176;28;20339;-69
2023/01/11 07:14:58;;;;;;;;;;;10.90;99.90;;;;;;5073513;28;20003;-69
2023/01/11 07:17:23;;;;;;;;;;;11.00;99.90;;;;;;5055319;28;19956;-69
2023/01/11 07:19:49;;;;;;;;;;;11.00;99.90;;;;;;5073779;28;20378;-68
2023/01/11 07:22:15;;;;;;;;;;;11.10;99.90;;;;;;5057601;28;19904;-68
2023/01/11 07:24:40;;;;;;;;;;;11.00;99.90;;;;;;5054442;28;20011;-67
2023/01/11 07:27:06;;;;;;;;;;;11.00;99.90;;;;;;5076500;28;20000;-68
2023/01/11 07:29:31;;;;;;;;;;;11.00;99.90;;;;;;5076460;28;19908;-69
2023/01/11 07:31:56;;;;;;;;;;;11.00;99.90;;;;;;5075202;28;20292;-69
2023/01/11 07:34:22;;;;;;;;;;;11.00;99.90;;;;;;5075768;28;20305;-69
2023/01/11 07:36:48;;;;;;;;;;;11.10;99.90;;;;;;5061258;28;19958;-69
2023/01/11 07:39:14;;;;;;;;;;;11.10;99.90;;;;;;5078676;28;19904;-69
2023/01/11 07:44:23;;;;;;;;;;;11.10;99.90;;;;;;5075958;28;19912;-69
2023/01/11 07:46:49;;;;;;;;;;;11.10;99.90;;;;;;5065999;28;19905;-68
2023/01/11 07:49:14;;;;;;;;;;;11.20;99.90;;;;;;5038686;28;20046;-68
2023/01/11 07:51:40;;;;;;;;;;;11.20;99.90;;;;;;5074895;28;19940;-68
2023/01/11 07:54:05;;;;;;;;;;;11.30;99.90;;;;;;5058580;28;19908;-69
2023/01/11 07:56:31;;;;;;;;;;;11.30;99.90;;;;;;5076442;28;19916;-69
2023/01/11 07:58:56;;;;;;;;;;;11.30;99.90;;;;;;5076400;28;20269;-68
2023/01/11 08:01:22;;;;;;;;;;;11.40;99.90;;;;;;5076685;28;19997;-69
2023/01/11 08:03:47;;;;;;;;;;;11.30;99.90;;;;;;5058051;28;19905;-68
2023/01/11 08:06:13;;;;;;;;;;;11.40;99.90;;;;;;5076446;28;19935;-69
2023/01/11 08:08:39;;;;;;;;;;;11.30;99.90;;;;;;5058101;28;19912;-69
2023/01/11 08:16:34;;;;;;;;;;;11.40;99.90;;;;;;5076766;28;19921;-69
2023/01/11 08:19:00;;;;;;;;;;;11.40;99.90;;;;;;5077270;28;19996;-68
2023/01/11 08:21:26;;;;;;;;;;;11.50;99.90;;;;;;5077480;28;19913;-68
2023/01/11 08:23:52;;;;;;;;;;;11.50;99.90;;;;;;5067032;28;19908;-69
2023/01/11 08:26:17;;;;;;;;;;;11.50;99.90;;;;;;5057181;28;19916;-69
2023/01/11 08:28:43;;;;;;;;;;;11.40;99.90;;;;;;5056585;28;19905;-69
2023/01/11 08:31:09;;;;;;;;;;;11.50;99.90;;;;;;5056306;28;19928;-69
2023/01/11 08:33:34;;;;;;;;;;;11.50;99.90;;;;;;5055231;28;19904;-68
2023/01/11 08:36:03;;;;;;;;;;;11.60;99.90;;;;;;5056106;28;20345;-67
2023/01/11 08:38:29;;;;;;;;;;;11.50;99.90;;;;;;5055646;28;19963;-67
2023/01/11 08:40:54;;;;;;;;;;;11.60;99.90;;;;;;5075968;28;19908;-68
2023/01/11 08:43:20;;;;;;;;;;;11.60;99.90;;;;;;5076349;28;19911;-69
2023/01/11 08:45:45;;;;;;;;;;;11.60;99.90;;;;;;5058750;28;19992;-68
2023/01/11 08:48:11;;;;;;;;;;;11.60;99.90;;;;;;5055797;28;19975;-69
2023/01/11 08:50:37;;;;;;;;;;;11.60;99.90;;;;;;5055732;28;19951;-68
2023/01/11 08:53:02;;;;;;;;;;;11.60;99.90;;;;;;5037515;28;19947;-68
2023/01/11 08:55:29;;;;;;;;;;;11.60;99.90;;;;;;5055602;28;19912;-69
2023/01/11 08:57:58;;;;;;;;;;;11.60;99.90;;;;;;5055629;28;20368;-69
2023/01/11 09:00:23;;;;;;;;;;;11.50;99.90;;;;;;5055713;28;19905;-68
2023/01/11 09:02:48;;;;;;;;;;;11.60;99.90;;;;;;5037600;28;20361;-69
2023/01/11 09:05:14;;;;;;;;;;;11.50;99.90;;;;;;5055509;28;19905;-68
2023/01/11 09:07:39;;;;;;;;;;;11.40;99.90;;;;;;5073097;28;19908;-69
2023/01/11 09:10:05;;;;;;;;;;;11.40;99.90;;;;;;5056703;28;20440;-68
2023/01/11 09:12:31;;;;;;;;;;;11.30;99.90;;;;;;5075172;28;19915;-68
2023/01/11 09:14:57;;;;;;;;;;;11.20;99.90;;;;;;5058386;28;19912;-68
2023/01/11 09:17:22;;;;;;;;;;;11.10;99.90;;;;;;5076083;28;19904;-68
2023/01/11 09:19:48;;;;;;;;;;;11.00;99.90;;;;;;5057877;28;19904;-68
2023/01/11 09:22:13;;;;;;;;;;;11.00;99.90;;;;;;5058006;28;19904;-69
2023/01/11 09:24:39;;;;;;;;;;;10.90;99.90;;;;;;5056941;28;19904;-68
2023/01/11 09:27:04;;;;;;;;;;;10.80;99.90;;;;;;5074536;28;20320;-68
2023/01/11 09:29:30;;;;;;;;;;;10.80;99.90;;;;;;5057628;28;19987;-68
2023/01/11 09:31:56;;;;;;;;;;;10.60;99.90;;;;;;5075184;28;19904;-68
2023/01/11 09:34:23;;;;;;;;;;;10.60;99.90;;;;;;5057233;28;20353;-68
2023/01/11 09:36:49;;;;;;;;;;;10.60;99.90;;;;;;5074654;28;19919;-68
2023/01/11 09:39:17;;;;;;;;;;;10.60;99.90;;;;;;5056911;28;19904;-68
2023/01/11 09:42:02;;;;;;;;;;;10.50;99.90;;;;;;5074882;28;20002;-69
2023/01/11 09:44:29;;;;;;;;;;;10.50;99.90;;;;;;5074508;28;20049;-69
2023/01/11 09:47:12;;;;;;;;;;;10.50;99.90;;;;;;5073318;28;19987;-69
2023/01/11 09:49:41;;;;;;;;;;;10.40;99.90;;;;;;5074319;28;20361;-70
2023/01/11 09:52:16;;;;;;;;;;;10.50;99.90;;;;;;5074751;28;19904;-69
2023/01/11 09:54:44;;;;;;;;;;;10.40;99.90;;;;;;5075040;28;19911;-69
2023/01/11 09:57:09;;;;;;;;;;;10.50;99.90;;;;;;5056941;28;19908;-70
2023/01/11 09:59:45;;;;;;;;;;;10.50;99.90;;;;;;5058904;28;20003;-71
2023/01/11 10:02:22;;;;;;;;;;;10.50;99.90;;;;;;5054734;28;19909;-70
2023/01/11 10:04:52;;;;;;;;;;;10.60;99.90;;;;;;5053588;28;19995;-70
2023/01/11 10:07:41;;;;;;;;;;;10.60;99.90;;;;;;5154468;27;19911;-70
2023/01/11 10:10:20;;;;;;;;;;;10.60;99.90;;;;;;5144703;27;20441;-72
2023/01/11 10:12:48;;;;;;;;;;;10.60;99.90;;;;;;5136642;27;19914;-72
2023/01/11 10:15:34;;;;;;;;;;;10.60;99.90;;;;;;5134010;28;19918;-71
2023/01/11 10:18:18;;;;;;;;;;;10.70;99.90;;;;;;5134331;27;19908;-71
2023/01/11 10:20:49;;;;;;;;;;;10.70;99.90;;;;;;5131080;27;19911;-70
2023/01/11 10:23:40;;;;;;;;;;;10.60;99.90;;;;;;5137304;27;19912;-70
2023/01/11 10:26:16;;;;;;;;;;;10.60;99.90;;;;;;5151000;27;19964;-70
2023/01/11 10:29:06;;;;;;;;;;;10.60;99.90;;;;;;5151355;27;19930;-70
2023/01/11 10:31:57;;;;;;;;;;;10.60;99.90;;;;;;5139751;27;19915;-70
2023/01/11 10:37:43;;;;;;;;;;;10.60;99.90;;;;;;5132602;28;20016;-70
2023/01/11 10:42:51;;;;;;;;;;;10.50;99.90;;;;;;5132373;27;19944;-70
2023/01/11 10:45:19;;;;;;;;;;;10.50;99.90;;;;;;5130103;27;19916;-71
2023/01/11 10:47:58;;;;;;;;;;;10.50;99.90;;;;;;5132230;27;19930;-70
2023/01/11 10:50:26;;;;;;;;;;;10.50;99.90;;;;;;5137593;27;19969;-71
2023/01/11 10:52:58;;;;;;;;;;;10.60;99.90;;;;;;5137918;27;20006;-70
2023/01/11 10:55:44;;;;;;;;;;;10.60;99.90;;;;;;5136860;28;19908;-71
2023/01/11 10:58:25;;;;;;;;;;;10.60;99.90;;;;;;5072000;28;19925;-71
2023/01/11 11:00:57;;;;;;;;;;;10.60;99.90;;;;;;5068729;28;19919;-70
2023/01/11 11:03:28;;;;;;;;;;;10.60;99.90;;;;;;5068532;28;19943;-70
2023/01/11 11:05:59;;;;;;;;;;;10.60;99.90;;;;;;5068146;28;19924;-71
2023/01/11 11:08:30;;;;;;;;;;;10.60;99.90;;;;;;5050997;28;19915;-71
2023/01/11 11:11:00;;;;;;;;;;;10.70;99.90;;;;;;5067570;28;19917;-71
2023/01/11 11:13:44;;;;;;;;;;;10.60;99.90;;;;;;5076703;28;20010;-70
2023/01/11 11:16:21;;;;;;;;;;;10.70;99.90;;;;;;5088010;28;19948;-71
2023/01/11 11:18:47;;;;;;;;;;;10.60;99.90;;;;;;5057808;28;19923;-71
2023/01/11 11:21:25;;;;;;;;;;;10.60;99.90;;;;;;5057633;28;20317;-70
2023/01/11 11:23:57;;;;;;;;;;;10.70;99.90;;;;;;5058070;28;19908;-70
2023/01/11 11:26:26;;;;;;;;;;;10.60;99.90;;;;;;5074395;28;19912;-70
2023/01/11 11:28:59;;;;;;;;;;;10.70;99.90;;;;;;5074028;28;19909;-70
2023/01/11 11:31:24;;;;;;;;;;;10.70;99.90;;;;;;5057166;28;19909;-71
2023/01/11 11:33:49;;;;;;;;;;;10.60;99.90;;;;;;5057274;28;20423;-69
2023/01/11 11:36:16;;;;;;;;;;;10.70;99.90;;;;;;5113542;28;19933;-70
2023/01/11 11:39:20;;;;;;;;;;;10.60;99.90;;;;;;5101409;22;20025;-71
2023/01/11 11:41:47;;;;;;;;;;;10.60;99.90;;;;;;5003713;28;19909;-71
2023/01/11 11:44:18;;;;;;;;;;;10.60;99.90;;;;;;5023085;28;19917;-72
2023/01/11 11:47:00;;;;;;;;;;;10.60;99.90;;;;;;5017884;28;19917;-72
2023/01/11 11:49:26;;;;;;;;;;;10.70;99.90;;;;;;4997910;28;19987;-71
2023/01/11 11:51:52;;;;;;;;;;;10.70;99.90;;;;;;5015917;28;19913;-72
2023/01/11 11:54:19;;;;;;;;;;;10.70;99.90;;;;;;5015656;28;19910;-73
2023/01/11 11:56:45;;;;;;;;;;;10.70;99.90;;;;;;5013731;28;20287;-71
2023/01/11 11:59:13;;;;;;;;;;;10.70;99.90;;;;;;5012979;28;19917;-72
2023/01/11 12:01:45;;;;;;;;;;;10.80;99.90;;;;;;5014109;28;19926;-70
2023/01/11 12:04:13;;;;;;;;;;;10.80;99.90;;;;;;4996844;28;19913;-70
2023/01/11 12:06:39;;;;;;;;;;;10.80;99.90;;;;;;5013596;28;19914;-71
2023/01/11 12:09:09;;;;;;;;;;;10.70;99.90;;;;;;5016529;28;19920;-71
2023/01/11 12:11:36;;;;;;;;;;;10.70;99.90;;;;;;5017028;28;19910;-71
2023/01/11 12:14:15;;;;;;;;;;;10.70;99.90;;;;;;5026941;28;20392;-70
2023/01/11 12:16:41;;;;;;;;;;;10.70;99.90;;;;;;5018941;28;19921;-71
2023/01/11 12:19:25;;;;;;;;;;;10.70;99.90;;;;;;5034107;28;19909;-71
2023/01/11 12:21:51;;;;;;;;;;;10.70;99.90;;;;;;5020492;28;19909;-70
2023/01/11 12:24:21;;;;;;;;;;;10.70;99.90;;;;;;5029177;28;19940;-71
2023/01/11 12:26:49;;;;;;;;;;;10.80;99.90;;;;;;5038888;28;20008;-69
2023/01/11 12:29:27;;;;;;;;;;;10.80;99.90;;;;;;5034608;28;19913;-70
2023/01/11 12:32:09;;;;;;;;;;;10.90;99.90;;;;;;5037027;28;19987;-68
2023/01/11 12:34:35;;;;;;;;;;;10.80;99.90;;;;;;5037455;28;19909;-69
2023/01/11 12:37:00;;;;;;;;;;;10.90;99.90;;;;;;5035878;28;19920;-69
2023/01/11 12:39:33;;;;;;;;;;;10.90;99.90;;;;;;5036882;28;19917;-70
2023/01/11 12:42:07;;;;;;;;;;;10.80;99.90;;;;;;5036262;28;19916;-70
2023/01/11 12:44:41;;;;;;;;;;;10.70;99.90;;;;;;5041491;28;19915;-70
2023/01/11 12:47:16;;;;;;;;;;;10.60;99.90;;;;;;5036394;28;19913;-69
2023/01/11 12:49:56;;;;;;;;;;;10.60;99.90;;;;;;5037435;28;20004;-71
2023/01/11 12:52:24;;;;;;;;;;;10.50;99.90;;;;;;5035286;28;19916;-69
2023/01/11 12:55:14;;;;;;;;;;;10.40;99.90;;;;;;5034189;28;19913;-70
2023/01/11 12:58:03;;;;;;;;;;;10.50;99.90;;;;;;5035869;28;19959;-70
2023/01/11 13:00:48;;;;;;;;;;;10.50;99.90;;;;;;5034222;28;19916;-70
2023/01/11 13:03:13;;;;;;;;;;;10.50;99.90;;;;;;5035705;28;19971;-69
2023/01/11 13:05:59;;;;;;;;;;;10.50;99.90;;;;;;5030716;28;19913;-69
2023/01/11 13:08:24;;;;;;;;;;;10.60;99.90;;;;;;5039244;28;19959;-69
2023/01/11 13:11:33;;;;;;;;;;;10.60;99.90;;;;;;5038960;28;19920;-78
2023/01/11 13:14:09;;;;;;;;;;;10.70;99.90;;;;;;5015257;28;19910;-77
2023/01/11 13:16:41;;;;;;;;;;;10.60;99.90;;;;;;5027012;28;19909;-76
2023/01/11 13:19:15;;;;;;;;;;;10.70;99.90;;;;;;5053914;28;19909;-74
2023/01/11 13:21:43;;;;;;;;;;;10.60;99.90;;;;;;5032557;28;19944;-75
2023/01/11 13:24:14;;;;;;;;;;;10.60;99.90;;;;;;5035176;28;19909;-73
2023/01/11 13:26:41;;;;;;;;;;;10.60;99.90;;;;;;5038460;28;19916;-74
2023/01/11 13:29:25;;;;;;;;;;;10.70;99.90;;;;;;5033526;28;19909;-72
2023/01/11 13:31:51;;;;;;;;;;;10.70;99.90;;;;;;5038780;28;20011;-74
2023/01/11 13:34:46;;;;;;;;;;;10.80;99.90;;;;;;5035655;28;19971;-72
2023/01/11 13:37:38;;;;;;;;;;;10.70;99.90;;;;;;5030658;28;19909;-74
2023/01/11 13:40:15;;;;;;;;;;;10.80;99.90;;;;;;5034123;28;19921;-73
2023/01/11 13:42:42;;;;;;;;;;;10.70;99.90;;;;;;5034569;28;19913;-72
2023/01/11 13:45:16;;;;;;;;;;;10.80;99.90;;;;;;5049778;28;19916;-70
2023/01/11 13:47:50;;;;;;;;;;;10.80;99.90;;;;;;5042631;28;19909;-70
2023/01/11 13:50:28;;;;;;;;;;;10.80;99.90;;;;;;5052088;28;19909;-70
2023/01/11 13:53:08;;;;;;;;;;;10.80;99.90;;;;;;5025937;28;20358;-73
2023/01/11 13:55:39;;;;;;;;;;;10.80;99.90;;;;;;5030629;28;20349;-73
2023/01/11 13:58:10;;;;;;;;;;;10.80;99.90;;;;;;5030662;28;20055;-73
2023/01/11 14:00:50;;;;;;;;;;;10.80;99.90;;;;;;5034296;28;19917;-72
2023/01/11 14:03:31;;;;;;;;;;;10.90;99.90;;;;;;5028615;28;20432;-72
2023/01/11 14:05:59;;;;;;;;;;;10.90;99.90;;;;;;5015080;28;19921;-72
2023/01/11 14:08:38;;;;;;;;;;;11.00;99.90;;;;;;5020080;28;19992;-73
2023/01/11 14:11:03;;;;;;;;;;;11.00;99.90;;;;;;5016287;28;19909;-73
2023/01/11 14:16:22;;;;;;;;;;;11.00;99.90;;;;;;5030147;28;20377;-69
2023/01/11 14:19:11;;;;;;;;;;;11.00;99.90;;;;;;5027737;28;19921;-70
2023/01/11 14:21:45;;;;;;;;;;;10.90;99.90;;;;;;5027974;28;20443;-70
2023/01/11 14:24:12;;;;;;;;;;;10.90;99.90;;;;;;5032540;28;19935;-69
2023/01/11 14:26:50;;;;;;;;;;;10.90;99.90;;;;;;5034342;28;19917;-75
2023/01/11 14:29:19;;;;;;;;;;;10.90;99.90;;;;;;5033637;28;19909;-75
2023/01/11 14:32:05;;;;;;;;;;;10.90;99.90;;;;;;5036998;28;20373;-72
2023/01/11 14:34:39;;;;;;;;;;;10.90;99.90;;;;;;5033723;28;19949;-72
2023/01/11 14:37:30;;;;;;;;;;;10.90;99.90;;;;;;5024396;28;19919;-73
2023/01/11 14:39:59;;;;;;;;;;;10.90;99.90;;;;;;5025299;28;19917;-70
2023/01/11 14:42:30;;;;;;;;;;;10.90;99.90;;;;;;5034209;28;19921;-74
2023/01/11 14:45:01;;;;;;;;;;;10.90;99.90;;;;;;5033744;28;20004;-73
2023/01/11 14:47:46;;;;;;;;;;;10.90;99.90;;;;;;5021546;28;19924;-72
2023/01/11 14:50:25;;;;;;;;;;;10.90;99.90;;;;;;5018129;28;19914;-73
2023/01/11 14:52:52;;;;;;;;;;;10.90;99.90;;;;;;5036147;28;19999;-74
2023/01/11 14:55:22;;;;;;;;;;;10.80;99.90;;;;;;5038916;28;19909;-71
2023/01/11 14:57:50;;;;;;;;;;;10.80;99.90;;;;;;5038805;28;19910;-74
2023/01/11 15:00:19;;;;;;;;;;;10.90;99.90;;;;;;5027786;28;19909;-74
2023/01/11 15:02:51;;;;;;;;;;;10.80;99.90;;;;;;5018628;28;19914;-74
2023/01/11 15:05:29;;;;;;;;;;;10.80;99.90;;;;;;5018203;28;19935;-72
2023/01/11 15:08:13;;;;;;;;;;;10.80;99.90;;;;;;5017800;28;20307;-73
2023/01/11 15:10:59;;;;;;;;;;;10.70;99.90;;;;;;5016586;28;20247;-71
2023/01/11 15:13:26;;;;;;;;;;;10.70;99.90;;;;;;5017180;28;19913;-74